createdAt,value
2023-02-06T00:01:03.585Z,4.74
2023-02-06T00:03:30.996Z,4.69
2023-02-06T00:06:14.078Z,4.67
2023-02-06T00:08:44.113Z,4.88
2023-02-06T00:11:13.782Z,4.68
2023-02-06T00:13:55.254Z,4.68
2023-02-06T00:16:38.388Z,4.74
2023-02-06T00:19:17.352Z,4.91
2023-02-06T00:21:55.528Z,4.78
2023-02-06T00:24:26.835Z,4.89
2023-02-06T00:27:02.938Z,4.97
2023-02-06T00:29:29.748Z,4.89
2023-02-06T00:32:01.582Z,4.87
2023-02-06T00:34:58.022Z,4.79
2023-02-06T00:37:37.363Z,4.82
2023-02-06T00:40:11.332Z,4.97
2023-02-06T00:42:38.388Z,4.89
2023-02-06T00:45:06.834Z,4.96
2023-02-06T00:47:48.085Z,5.07
2023-02-06T00:50:22.815Z,5.16
2023-02-06T00:52:49.610Z,5.07
2023-02-06T00:55:16.728Z,4.94
2023-02-06T00:57:43.657Z,5.03
2023-02-06T01:00:11.313Z,5.08
2023-02-06T01:02:38.182Z,5.06
2023-02-06T01:05:05.476Z,5.18
2023-02-06T01:07:59.121Z,5.31
2023-02-06T01:10:49.678Z,5.18
2023-02-06T01:13:16.571Z,5.01
2023-02-06T01:15:43.695Z,5.10
2023-02-06T01:18:11.324Z,5.27
2023-02-06T01:20:40.524Z,5.72
2023-02-06T01:23:07.397Z,5.73
2023-02-06T01:25:34.707Z,6.07
2023-02-06T01:28:06.046Z,5.72
2023-02-06T01:30:33.147Z,5.60
2023-02-06T01:33:11.748Z,5.95
2023-02-06T01:35:45.264Z,5.92
2023-02-06T01:41:31.722Z,5.32
2023-02-06T01:44:24.674Z,5.50
2023-02-06T01:46:55.164Z,5.65
2023-02-06T01:49:35.633Z,5.45
2023-02-06T01:52:15.857Z,5.43
2023-02-06T01:54:46.261Z,5.23
2023-02-06T01:57:16.512Z,5.34
2023-02-06T01:59:48.788Z,5.42
2023-02-06T02:02:35.887Z,5.33
2023-02-06T02:05:11.988Z,5.59
2023-02-06T02:07:46.568Z,5.97
2023-02-06T02:10:13.638Z,6.24
2023-02-06T02:12:40.818Z,6.00
2023-02-06T02:15:10.049Z,6.18
2023-02-06T02:17:52.071Z,6.76
2023-02-06T02:24:02.931Z,6.16
2023-02-06T02:26:44.752Z,6.48
2023-02-06T02:29:36.823Z,6.34
2023-02-06T02:32:20.441Z,6.10
2023-02-06T02:35:23.880Z,5.94
2023-02-06T02:38:03.124Z,5.55
2023-02-06T02:40:45.789Z,5.31
2023-02-06T02:43:22.964Z,5.47
2023-02-06T02:46:11.221Z,5.04
2023-02-06T02:48:46.517Z,5.01
2023-02-06T02:51:21.312Z,4.89
2023-02-06T02:53:59.792Z,4.87
2023-02-06T02:56:30.154Z,5.01
2023-02-06T02:59:11.575Z,4.98
2023-02-06T03:01:48.676Z,4.90
2023-02-06T03:04:31.376Z,4.95
2023-02-06T03:07:46.248Z,4.71
2023-02-06T03:10:34.093Z,4.74
2023-02-06T03:13:16.616Z,4.84
2023-02-06T03:15:51.145Z,4.87
2023-02-06T03:18:35.166Z,4.81
2023-02-06T03:21:07.274Z,5.04
2023-02-06T03:23:42.494Z,5.01
2023-02-06T03:26:13.781Z,5.06
2023-02-06T03:28:53.274Z,5.10
2023-02-06T03:31:36.097Z,4.94
2023-02-06T03:34:11.376Z,4.93
2023-02-06T03:36:44.361Z,5.05
2023-02-06T03:39:23.637Z,4.90
2023-02-06T03:41:54.990Z,4.74
2023-02-06T03:44:29.396Z,4.61
2023-02-06T03:46:59.607Z,4.45
2023-02-06T03:49:29.862Z,4.90
2023-02-06T03:52:14.521Z,4.87
2023-02-06T03:54:50.997Z,5.07
2023-02-06T03:57:21.928Z,4.94
2023-02-06T03:59:49.449Z,5.26
2023-02-06T04:02:17.965Z,5.17
2023-02-06T04:04:46.235Z,5.33
2023-02-06T04:07:16.325Z,5.00
2023-02-06T04:09:43.379Z,4.88
2023-02-06T04:12:11.884Z,4.76
2023-02-06T04:14:39.524Z,5.12
2023-02-06T04:17:07.236Z,5.72
2023-02-06T04:19:41.637Z,5.51
2023-02-06T04:22:12.353Z,5.71
2023-02-06T04:24:49.508Z,6.84
2023-02-06T04:27:18.144Z,7.55
2023-02-06T04:29:45.093Z,7.76
2023-02-06T04:32:16.836Z,7.95
2023-02-06T04:34:43.788Z,8.14
2023-02-06T04:37:14.963Z,7.91
2023-02-06T04:39:47.215Z,8.82
2023-02-06T04:42:14.365Z,9.07
2023-02-06T04:44:41.269Z,8.61
2023-02-06T04:47:08.316Z,8.27
2023-02-06T04:49:35.346Z,8.19
2023-02-06T04:52:05.761Z,7.61
2023-02-06T04:54:32.869Z,7.39
2023-02-06T04:57:00.009Z,6.87
2023-02-06T04:59:27.365Z,6.12
2023-02-06T05:01:59.802Z,5.95
2023-02-06T05:04:26.828Z,5.94
2023-02-06T05:06:56.244Z,5.49
2023-02-06T05:09:27.910Z,5.38
2023-02-06T05:11:54.878Z,5.58
2023-02-06T05:14:21.924Z,5.86
2023-02-06T05:16:48.955Z,5.77
2023-02-06T05:19:18.157Z,5.62
2023-02-06T05:21:45.117Z,5.40
2023-02-06T05:24:16.047Z,6.45
2023-02-06T05:26:42.788Z,6.44
2023-02-06T05:29:09.589Z,6.05
2023-02-06T05:31:46.429Z,5.36
2023-02-06T05:34:13.265Z,5.21
2023-02-06T05:36:41.159Z,4.98
2023-02-06T05:39:08.663Z,4.75
2023-02-06T05:41:35.730Z,4.63
2023-02-06T05:44:04.507Z,4.40
2023-02-06T05:46:45.074Z,4.69
2023-02-06T05:52:40.618Z,5.93
2023-02-06T05:55:07.982Z,5.22
2023-02-06T05:57:34.733Z,5.21
2023-02-06T06:00:01.581Z,4.52
2023-02-06T06:02:28.366Z,4.16
2023-02-06T06:04:55.183Z,4.06
2023-02-06T06:07:21.967Z,3.98
2023-02-06T06:10:01.179Z,3.86
2023-02-06T06:12:27.969Z,3.70
2023-02-06T06:14:54.888Z,3.49
2023-02-06T06:17:24.641Z,3.37
2023-02-06T06:19:51.421Z,3.34
2023-02-06T06:22:18.200Z,3.42
2023-02-06T06:24:44.986Z,3.68
2023-02-06T06:27:11.970Z,3.80
2023-02-06T06:29:38.768Z,3.74
2023-02-06T06:32:34.596Z,3.49
2023-02-06T06:35:01.553Z,3.34
2023-02-06T06:37:35.097Z,3.46
2023-02-06T06:40:04.416Z,4.14
2023-02-06T06:42:31.323Z,5.23
2023-02-06T06:44:58.932Z,4.57
2023-02-06T06:47:26.151Z,4.12
2023-02-06T06:49:58.587Z,3.83
2023-02-06T06:52:27.837Z,3.67
2023-02-06T06:54:57.643Z,3.57
2023-02-06T06:57:36.436Z,3.46
2023-02-06T07:00:09.304Z,3.53
2023-02-06T07:02:36.201Z,3.61
2023-02-06T07:05:04.300Z,3.98
2023-02-06T07:07:35.654Z,3.96
2023-02-06T07:10:02.438Z,4.30
2023-02-06T07:12:32.802Z,5.05
2023-02-06T07:14:59.664Z,5.17
2023-02-06T07:17:31.982Z,5.13
2023-02-06T07:20:01.900Z,5.88
2023-02-06T07:22:33.111Z,5.68
2023-02-06T07:25:03.099Z,5.12
2023-02-06T07:27:30.305Z,5.86
2023-02-06T07:30:01.696Z,5.09
2023-02-06T07:32:37.019Z,4.71
2023-02-06T07:35:07.333Z,4.72
2023-02-06T07:37:35.612Z,5.27
2023-02-06T07:40:04.685Z,5.77
2023-02-06T07:42:36.320Z,6.88
2023-02-06T07:45:13.265Z,7.97
2023-02-06T07:47:45.816Z,7.17
2023-02-06T07:50:24.536Z,7.20
2023-02-06T07:52:51.335Z,8.33
2023-02-06T07:55:21.206Z,8.49
2023-02-06T07:58:00.304Z,8.17
2023-02-06T08:00:27.119Z,8.55
2023-02-06T08:03:00.334Z,8.36
2023-02-06T08:05:29.135Z,8.68
2023-02-06T08:07:56.085Z,8.71
2023-02-06T08:10:31.981Z,8.51
2023-02-06T08:12:58.849Z,8.50
2023-02-06T08:15:25.606Z,8.80
2023-02-06T08:17:52.870Z,9.12
2023-02-06T08:20:24.513Z,9.72
2023-02-06T08:22:57.210Z,9.99
2023-02-06T08:25:24.336Z,9.75
2023-02-06T08:27:55.432Z,9.26
2023-02-06T08:30:23.047Z,9.31
2023-02-06T08:32:56.790Z,8.89
2023-02-06T08:35:24.393Z,8.45
2023-02-06T08:38:02.972Z,8.51
2023-02-06T08:40:38.272Z,9.05
2023-02-06T08:43:09.679Z,9.57
2023-02-06T08:45:39.842Z,10.05
2023-02-06T08:48:08.750Z,9.70
2023-02-06T08:50:36.142Z,9.57
2023-02-06T08:53:06.795Z,10.06
2023-02-06T08:55:33.795Z,10.43
2023-02-06T08:58:04.861Z,10.36
2023-02-06T09:00:31.622Z,9.82
2023-02-06T09:03:01.306Z,8.99
2023-02-06T09:05:31.652Z,8.97
2023-02-06T09:07:58.616Z,9.41
2023-02-06T09:10:27.681Z,9.32
2023-02-06T09:12:56.086Z,9.59
2023-02-06T09:15:22.891Z,9.58
2023-02-06T09:17:52.634Z,10.10
2023-02-06T09:20:20.433Z,10.57
2023-02-06T09:22:49.615Z,10.20
2023-02-06T09:25:16.647Z,9.63
2023-02-06T09:27:47.500Z,9.43
2023-02-06T09:30:19.063Z,10.08
2023-02-06T09:32:48.292Z,10.18
2023-02-06T09:35:24.682Z,9.68
2023-02-06T09:37:52.208Z,9.94
2023-02-06T09:40:27.775Z,9.66
2023-02-06T09:42:57.918Z,9.75
2023-02-06T09:45:28.985Z,9.55
2023-02-06T09:48:06.586Z,10.08
2023-02-06T09:51:07.850Z,10.26
2023-02-06T09:53:34.590Z,10.09
2023-02-06T09:56:16.999Z,10.30
2023-02-06T09:58:59.778Z,10.37
2023-02-06T10:01:26.399Z,10.33
2023-02-06T10:03:59.139Z,10.07
2023-02-06T10:06:43.625Z,9.77
2023-02-06T10:09:16.384Z,10.50
2023-02-06T10:11:59.917Z,10.98
2023-02-06T10:14:57.238Z,10.72
2023-02-06T10:18:05.683Z,10.72
2023-02-06T10:20:40.421Z,10.87
2023-02-06T10:23:47.662Z,10.72
2023-02-06T10:26:19.751Z,10.56
2023-02-06T10:28:56.206Z,11.02
2023-02-06T10:31:41.419Z,11.11
2023-02-06T10:34:35.768Z,10.67
2023-02-06T10:37:30.899Z,10.59
2023-02-06T10:40:25.319Z,10.42
2023-02-06T10:43:21.925Z,10.75
2023-02-06T10:46:12.172Z,11.29
2023-02-06T10:48:45.587Z,10.97
2023-02-06T10:51:24.087Z,11.08
2023-02-06T10:53:56.790Z,10.69
2023-02-06T10:57:14.619Z,10.76
2023-02-06T10:59:48.418Z,11.11
2023-02-06T11:03:01.325Z,11.13
2023-02-06T11:05:34.741Z,11.47
2023-02-06T11:08:39.427Z,11.02
2023-02-06T11:11:31.596Z,10.84
2023-02-06T11:14:23.188Z,10.68
2023-02-06T11:17:05.306Z,10.72
2023-02-06T11:19:40.479Z,10.42
2023-02-06T11:22:09.345Z,10.49
2023-02-06T11:25:05.071Z,11.01
2023-02-06T11:27:33.871Z,11.24
2023-02-06T11:30:08.975Z,11.14
2023-02-06T11:32:52.777Z,11.17
2023-02-06T11:35:41.541Z,11.22
2023-02-06T11:38:20.086Z,11.08
2023-02-06T11:41:03.044Z,10.90
2023-02-06T11:44:02.843Z,10.77
2023-02-06T11:46:38.040Z,10.86
2023-02-06T11:49:26.842Z,10.81
2023-02-06T11:52:03.941Z,10.85
2023-02-06T11:54:35.360Z,11.13
2023-02-06T11:57:19.619Z,11.29
2023-02-06T11:59:58.047Z,11.32
2023-02-06T12:02:36.485Z,11.34
2023-02-06T12:05:18.424Z,11.07
2023-02-06T12:07:57.657Z,11.13
2023-02-06T12:10:29.245Z,11.19
2023-02-06T12:13:03.561Z,10.86
2023-02-06T12:15:46.420Z,11.30
2023-02-06T12:18:39.545Z,11.13
2023-02-06T12:21:41.157Z,10.91
2023-02-06T12:24:50.287Z,11.26
2023-02-06T12:27:39.434Z,10.85
2023-02-06T12:30:24.994Z,10.34
2023-02-06T12:33:25.349Z,10.35
2023-02-06T12:36:21.016Z,10.45
2023-02-06T12:39:06.279Z,10.71
2023-02-06T12:41:55.099Z,11.02
2023-02-06T12:44:21.857Z,11.25
2023-02-06T12:47:00.606Z,11.29
2023-02-06T12:49:42.148Z,11.20
2023-02-06T12:52:22.676Z,11.37
2023-02-06T12:55:12.513Z,11.39
2023-02-06T12:57:44.937Z,11.18
2023-02-06T13:00:22.262Z,11.34
2023-02-06T13:03:33.040Z,11.09
2023-02-06T13:06:31.141Z,11.45
2023-02-06T13:09:06.039Z,11.23
2023-02-06T13:11:41.573Z,11.54
2023-02-06T13:14:32.574Z,11.81
2023-02-06T13:17:22.153Z,11.26
2023-02-06T13:20:12.460Z,11.30
2023-02-06T13:23:23.082Z,11.51
2023-02-06T13:25:53.334Z,11.37
2023-02-06T13:28:32.291Z,11.54
2023-02-06T13:31:44.908Z,11.66
2023-02-06T13:34:18.012Z,11.68
2023-02-06T13:36:51.399Z,11.65
2023-02-06T13:39:31.970Z,11.37
2023-02-06T13:42:25.088Z,11.40
2023-02-06T13:44:56.223Z,11.06
2023-02-06T13:48:11.960Z,10.88
2023-02-06T13:51:05.290Z,11.09
2023-02-06T13:54:06.182Z,11.26
2023-02-06T13:56:57.265Z,11.45
2023-02-06T13:59:36.798Z,11.51
2023-02-06T14:05:39.225Z,11.71
2023-02-06T14:08:30.575Z,10.90
2023-02-06T14:11:27.230Z,11.14
2023-02-06T14:14:03.496Z,10.99
2023-02-06T14:17:30.099Z,10.79
2023-02-06T14:20:21.851Z,11.09
2023-02-06T14:23:03.097Z,11.22
2023-02-06T14:25:59.927Z,11.26
2023-02-06T14:29:17.636Z,11.22
2023-02-06T14:32:07.785Z,11.05
2023-02-06T14:34:43.888Z,11.20
2023-02-06T14:37:46.167Z,11.00
2023-02-06T14:40:23.000Z,10.97
2023-02-06T14:42:59.268Z,11.12
2023-02-06T14:45:41.750Z,11.33
2023-02-06T14:48:18.041Z,11.30
2023-02-06T14:50:50.996Z,11.45
2023-02-06T14:53:28.455Z,11.40
2023-02-06T14:56:16.123Z,11.06
2023-02-06T14:58:46.662Z,11.24
2023-02-06T15:01:21.047Z,11.44
2023-02-06T15:03:50.264Z,11.40
2023-02-06T15:06:34.206Z,10.99
2023-02-06T15:09:05.418Z,11.10
2023-02-06T15:11:35.177Z,11.46
2023-02-06T15:14:06.519Z,11.43
2023-02-06T15:16:49.226Z,11.42
2023-02-06T15:19:22.416Z,11.35
2023-02-06T15:21:51.421Z,11.41
2023-02-06T15:24:27.316Z,11.12
2023-02-06T15:27:25.858Z,11.19
2023-02-06T15:29:58.759Z,11.25
2023-02-06T15:32:31.634Z,11.12
2023-02-06T15:35:00.155Z,11.11
2023-02-06T15:37:36.430Z,11.26
2023-02-06T15:40:17.262Z,11.50
2023-02-06T15:42:44.757Z,11.06
2023-02-06T15:45:39.268Z,10.83
2023-02-06T15:48:57.758Z,11.18
2023-02-06T15:51:29.223Z,11.27
2023-02-06T15:54:17.983Z,11.32
2023-02-06T15:56:52.229Z,11.22
2023-02-06T15:59:31.371Z,11.27
2023-02-06T16:01:58.820Z,11.31
2023-02-06T16:04:42.368Z,11.08
2023-02-06T16:07:29.812Z,11.30
2023-02-06T16:10:08.686Z,10.89
2023-02-06T16:12:37.993Z,10.90
2023-02-06T16:15:21.194Z,10.91
2023-02-06T16:17:47.939Z,10.78
2023-02-06T16:20:37.066Z,10.70
2023-02-06T16:23:40.727Z,10.97
2023-02-06T16:26:32.300Z,10.95
2023-02-06T16:29:13.764Z,11.24
2023-02-06T16:32:19.552Z,10.82
2023-02-06T16:34:48.785Z,9.74
2023-02-06T16:37:18.858Z,9.83
2023-02-06T16:39:48.568Z,10.05
2023-02-06T16:42:38.516Z,10.17
2023-02-06T16:45:30.034Z,10.57
2023-02-06T16:47:57.002Z,10.56
2023-02-06T16:50:27.719Z,10.50
2023-02-06T16:53:01.110Z,10.68
2023-02-06T16:55:29.136Z,10.74
2023-02-06T16:58:01.998Z,10.16
2023-02-06T17:03:08.378Z,10.82
2023-02-06T17:05:37.697Z,10.68
2023-02-06T17:08:26.361Z,10.47
2023-02-06T17:10:53.410Z,10.66
2023-02-06T17:13:25.244Z,10.42
2023-02-06T17:15:53.396Z,10.69
2023-02-06T17:18:22.580Z,10.68
2023-02-06T17:20:52.926Z,10.81
2023-02-06T17:23:20.849Z,10.83
2023-02-06T17:25:59.847Z,10.92
2023-02-06T17:28:29.994Z,11.07
2023-02-06T17:30:56.934Z,11.05
2023-02-06T17:33:26.711Z,11.25
2023-02-06T17:35:53.716Z,10.85
2023-02-06T17:38:20.791Z,10.90
2023-02-06T17:40:52.086Z,10.95
2023-02-06T17:43:19.020Z,10.42
2023-02-06T17:45:46.121Z,9.70
2023-02-06T17:48:14.351Z,10.34
2023-02-06T17:50:48.079Z,10.41
2023-02-06T17:53:18.474Z,10.56
2023-02-06T17:55:48.040Z,10.34
2023-02-06T17:58:15.100Z,9.98
2023-02-06T18:00:42.728Z,10.29
2023-02-06T18:03:09.905Z,9.67
2023-02-06T18:05:48.314Z,9.83
2023-02-06T18:08:18.762Z,9.67
2023-02-06T18:10:45.663Z,9.34
2023-02-06T18:13:18.041Z,9.19
2023-02-06T18:15:53.146Z,9.44
2023-02-06T18:18:23.560Z,8.65
2023-02-06T18:20:53.646Z,8.12
2023-02-06T18:23:23.224Z,8.73
2023-02-06T18:25:50.402Z,8.41
2023-02-06T18:28:18.287Z,8.38
2023-02-06T18:30:45.502Z,8.29
2023-02-06T18:36:05.587Z,7.90
2023-02-06T18:38:38.369Z,7.06
2023-02-06T18:41:06.646Z,6.87
2023-02-06T18:43:35.361Z,7.27
2023-02-06T18:46:14.898Z,7.57
2023-02-06T18:48:41.929Z,7.24
2023-02-06T18:51:11.590Z,7.07
2023-02-06T18:53:41.568Z,6.53
2023-02-06T18:56:14.062Z,6.50
2023-02-06T18:58:41.940Z,6.61
2023-02-06T19:01:20.629Z,6.10
2023-02-06T19:03:54.450Z,6.10
2023-02-06T19:06:33.705Z,6.04
2023-02-06T19:09:09.678Z,5.84
2023-02-06T19:11:38.357Z,6.10
2023-02-06T19:14:06.546Z,6.05
2023-02-06T19:16:41.317Z,6.18
2023-02-06T19:19:13.902Z,6.23
2023-02-06T19:21:41.129Z,7.66
2023-02-06T19:24:10.817Z,7.68
2023-02-06T19:26:37.696Z,7.21
2023-02-06T19:29:13.324Z,8.31
2023-02-06T19:31:46.911Z,7.95
2023-02-06T19:34:20.369Z,7.65
2023-02-06T19:36:48.833Z,6.87
2023-02-06T19:39:15.656Z,6.95
2023-02-06T19:41:45.532Z,6.29
2023-02-06T19:44:16.838Z,5.75
2023-02-06T19:46:43.784Z,5.73
2023-02-06T19:49:11.515Z,6.30
2023-02-06T19:51:43.229Z,7.53
2023-02-06T19:54:10.065Z,7.85
2023-02-06T19:56:42.971Z,7.76
2023-02-06T19:59:19.253Z,8.32
2023-02-06T20:01:51.371Z,8.16
2023-02-06T20:04:20.566Z,7.45
2023-02-06T20:06:50.182Z,6.74
2023-02-06T20:09:18.882Z,6.32
2023-02-06T20:11:47.887Z,6.34
2023-02-06T20:14:25.577Z,6.13
2023-02-06T20:16:58.441Z,5.76
2023-02-06T20:19:31.164Z,6.00
2023-02-06T20:22:00.853Z,6.97
2023-02-06T20:24:44.523Z,7.07
2023-02-06T20:27:15.450Z,6.77
2023-02-06T20:29:49.815Z,7.37
2023-02-06T20:32:19.970Z,8.03
2023-02-06T20:34:52.695Z,8.73
2023-02-06T20:37:21.753Z,8.26
2023-02-06T20:40:00.078Z,8.13
2023-02-06T20:42:31.620Z,8.25
2023-02-06T20:45:01.199Z,7.43
2023-02-06T20:47:31.217Z,7.34
2023-02-06T20:50:07.376Z,7.14
2023-02-06T20:52:47.038Z,7.73
2023-02-06T20:55:14.614Z,7.22
2023-02-06T20:57:51.758Z,7.15
2023-02-06T21:00:19.363Z,7.24
2023-02-06T21:02:53.087Z,7.54
2023-02-06T21:05:20.688Z,7.55
2023-02-06T21:07:48.141Z,8.05
2023-02-06T21:10:17.991Z,7.81
2023-02-06T21:12:57.782Z,7.69
2023-02-06T21:15:24.879Z,7.09
2023-02-06T21:17:51.695Z,7.19
2023-02-06T21:20:18.785Z,7.11
2023-02-06T21:23:03.821Z,7.95
2023-02-06T21:25:30.666Z,7.53
2023-02-06T21:28:14.573Z,8.15
2023-02-06T21:30:44.444Z,8.34
2023-02-06T21:33:22.043Z,8.98
2023-02-06T21:36:05.185Z,8.61
2023-02-06T21:38:46.556Z,8.31
2023-02-06T21:41:24.282Z,7.90
2023-02-06T21:43:52.421Z,7.44
2023-02-06T21:46:22.803Z,6.60
2023-02-06T21:48:56.105Z,6.66
2023-02-06T21:51:29.631Z,6.24
2023-02-06T21:54:04.758Z,5.53
2023-02-06T21:56:39.105Z,4.96
2023-02-06T21:59:10.658Z,5.19
2023-02-06T22:01:40.913Z,4.83
2023-02-06T22:04:13.827Z,4.46
2023-02-06T22:06:43.468Z,4.43
2023-02-06T22:09:24.361Z,3.94
2023-02-06T22:14:50.066Z,4.09
2023-02-06T22:17:17.255Z,3.92
2023-02-06T22:19:47.580Z,4.04
2023-02-06T22:22:29.924Z,4.23
2023-02-06T22:25:22.565Z,5.52
2023-02-06T22:28:19.977Z,5.65
2023-02-06T22:36:19.397Z,5.43
2023-02-06T22:38:47.675Z,6.14
2023-02-06T22:41:17.468Z,6.48
2023-02-06T22:43:49.999Z,6.38
2023-02-06T22:46:41.506Z,6.54
2023-02-06T22:49:13.958Z,6.92
2023-02-06T22:51:45.376Z,7.05
2023-02-06T22:54:22.609Z,6.70
2023-02-06T22:56:49.689Z,6.35
2023-02-06T22:59:24.814Z,6.12
2023-02-06T23:01:59.144Z,5.95
2023-02-06T23:04:41.435Z,5.01
2023-02-06T23:07:16.986Z,5.00
2023-02-06T23:09:45.392Z,4.81
2023-02-06T23:12:14.152Z,4.78
2023-02-06T23:14:41.219Z,4.80
2023-02-06T23:17:10.728Z,4.31
2023-02-06T23:19:44.108Z,3.99
2023-02-06T23:22:14.266Z,4.56
2023-02-06T23:24:45.770Z,4.26
2023-02-06T23:27:14.325Z,3.77
2023-02-06T23:29:41.210Z,4.04
2023-02-06T23:32:11.959Z,3.94
2023-02-06T23:34:42.925Z,3.78
2023-02-06T23:37:11.124Z,3.59
2023-02-06T23:39:41.352Z,3.14
2023-02-06T23:42:11.207Z,3.00
2023-02-06T23:44:37.957Z,3.15
2023-02-06T23:47:12.079Z,3.26
2023-02-06T23:49:38.903Z,3.15
2023-02-06T23:52:16.512Z,3.08
2023-02-06T23:54:49.214Z,3.02
2023-02-06T23:57:20.095Z,3.26
2023-02-06T23:59:49.910Z,3.13
